Main page
METAR-TAF:

METAR-TAF

Airports :

Lydd Airport

Lydd, England

latitude: 50-57N, longitude: 000-56E, elevation: 3 m

Current weather observation

The report was made 27 minutes ago, at 05:50 UTC
Wind 9 kt from the South
Temperature 18°C
Humidity 94%
Pressure 1012 hPa
Visibility 10 km or more

METAR: EGMD 260550Z AUTO 19009KT 9999 NCD 18/17 Q1012

Time: 07:17 (06:17 UTC)

Forecast

The report was made 1 hour and 22 minutes ago, at 04:55 UTC
Forecast valid from 26 at 06 UTC to 26 at 15 UTC
Wind 8 kt from the South
Visibility 10 km or more
Few clouds at a height of 4500 ft
Probability 30%
from 26 at 06 UTC to 26 at 09 UTC
Visibility: 4000 m
mist

TAF: EGMD 260455Z 2606/2615 18008KT 9999 FEW045 PROB30 2606/2609 4000 BR

Weather observations and forecasts of more than 4000 airports (METAR and TAF reports).

The available stations are represented by yellow and red dots on the map.

Hover mouse over dot to see the name of the station.

Then click to see weather observations and forecasts.

To change the map : click on the green buttons with a black cross to zoom in, on the green button with a dash to zoom out, or on the green arrows for adjacent maps.


METAR-TAF: